createdAt,value
2022-10-19T00:00:20.332Z,99879.03
2022-10-19T00:01:04.009Z,99877.41
2022-10-19T00:01:36.858Z,99875.03
2022-10-19T00:02:09.118Z,99875.78
2022-10-19T00:02:43.822Z,99882.81
2022-10-19T00:03:19.408Z,99883.91
2022-10-19T00:03:55.907Z,99880.72
2022-10-19T00:04:31.146Z,99873.41
2022-10-19T00:05:03.276Z,99878.00
2022-10-19T00:05:35.463Z,99877.19
2022-10-19T00:06:17.579Z,99864.75
2022-10-19T00:06:49.707Z,99868.88
2022-10-19T00:07:21.849Z,99867.78
2022-10-19T00:07:56.491Z,99864.25
2022-10-19T00:08:28.542Z,99862.66
2022-10-19T00:09:02.999Z,99856.13
2022-10-19T00:09:37.693Z,99870.47
2022-10-19T00:10:10.364Z,99869.97
2022-10-19T00:10:42.544Z,99856.72
2022-10-19T00:11:17.222Z,99869.16
2022-10-19T00:11:50.878Z,99851.28
2022-10-19T00:12:22.958Z,99853.72
2022-10-19T00:12:57.757Z,99840.47
2022-10-19T00:13:29.848Z,99851.09
2022-10-19T00:14:02.288Z,99874.34
2022-10-19T00:14:36.983Z,99844.56
2022-10-19T00:15:09.894Z,99855.69
2022-10-19T00:15:42.332Z,99849.47
2022-10-19T00:16:19.051Z,99850.28
2022-10-19T00:16:52.911Z,99854.09
2022-10-19T00:17:25.080Z,99861.41
2022-10-19T00:17:59.710Z,99846.28
2022-10-19T00:18:31.787Z,99843.84
2022-10-19T00:19:06.293Z,99859.59
2022-10-19T00:19:40.938Z,99845.25
2022-10-19T00:20:13.451Z,99846.34
2022-10-19T00:20:45.522Z,99837.41
2022-10-19T00:21:22.982Z,99853.38
2022-10-19T00:21:56.438Z,99854.75
2022-10-19T00:22:28.729Z,99836.59
2022-10-19T00:23:03.378Z,99837.69
2022-10-19T00:23:35.737Z,99833.41
2022-10-19T00:24:08.761Z,99828.00
2022-10-19T00:24:43.439Z,99835.00
2022-10-19T00:25:15.773Z,99833.41
2022-10-19T00:25:55.458Z,99841.00
2022-10-19T00:26:30.207Z,99835.09
2022-10-19T00:27:02.328Z,99823.75
2022-10-19T00:27:34.567Z,99824.53
2022-10-19T00:28:09.250Z,99840.78
2022-10-19T00:28:42.378Z,99838.88
2022-10-19T00:29:15.766Z,99829.16
2022-10-19T00:29:50.663Z,99835.66
2022-10-19T00:30:22.797Z,99821.31
2022-10-19T00:30:54.972Z,99822.13
2022-10-19T00:31:30.059Z,99815.91
2022-10-19T00:32:02.130Z,99820.53
2022-10-19T00:32:34.509Z,99829.75
2022-10-19T00:33:06.794Z,99808.09
2022-10-19T00:33:41.656Z,99810.28
2022-10-19T00:34:13.800Z,99809.47
2022-10-19T00:34:45.942Z,99821.41
2022-10-19T00:35:20.750Z,99813.28
2022-10-19T00:35:53.161Z,99803.56
2022-10-19T00:36:33.009Z,99816.28
2022-10-19T00:37:05.090Z,99800.66
2022-10-19T00:37:37.172Z,99807.66
2022-10-19T00:38:11.885Z,99802.22
2022-10-19T00:38:43.989Z,99802.53
2022-10-19T00:39:17.872Z,99798.72
2022-10-19T00:39:52.666Z,99805.25
2022-10-19T00:40:24.758Z,99796.31
2022-10-19T00:40:57.197Z,99797.13
2022-10-19T00:41:34.347Z,99797.94
2022-10-19T00:42:06.678Z,99799.03
2022-10-19T00:42:38.835Z,99805.50
2022-10-19T00:43:14.240Z,99802.53
2022-10-19T00:44:00.361Z,99797.97
2022-10-19T00:45:14.106Z,99791.84
2022-10-19T00:45:49.162Z,99803.53
2022-10-19T00:46:21.839Z,99788.09
2022-10-19T00:46:54.280Z,99795.94
2022-10-19T00:47:27.027Z,99804.06
2022-10-19T00:48:01.701Z,99795.94
2022-10-19T00:48:33.864Z,99792.13
2022-10-19T00:49:10.883Z,99791.03
2022-10-19T00:49:48.178Z,99791.03
2022-10-19T00:50:20.555Z,99798.66
2022-10-19T00:50:54.590Z,99789.72
2022-10-19T00:51:32.941Z,99798.66
2022-10-19T00:52:07.983Z,99781.09
2022-10-19T00:52:40.274Z,99785.69
2022-10-19T00:53:15.246Z,99782.97
2022-10-19T00:53:47.572Z,99782.16
2022-10-19T00:54:20.305Z,99798.72
2022-10-19T00:54:56.601Z,99782.47
2022-10-19T00:55:28.901Z,99773.84
2022-10-19T00:56:06.146Z,99784.66
2022-10-19T00:56:43.778Z,99781.47
2022-10-19T00:57:16.381Z,99763.63
2022-10-19T00:57:48.560Z,99775.25
2022-10-19T00:58:23.394Z,99769.84
2022-10-19T00:58:55.943Z,99756.31
2022-10-19T00:59:31.847Z,99772.81
2022-10-19T01:00:09.883Z,99769.59
2022-10-19T01:00:42.035Z,99768.00
2022-10-19T01:01:17.883Z,99780.41
2022-10-19T01:01:53.176Z,99778.03
2022-10-19T01:02:25.295Z,99765.31
2022-10-19T01:02:58.941Z,99783.94
2022-10-19T01:03:33.751Z,99762.59
2022-10-19T01:04:06.192Z,99765.00
2022-10-19T01:04:46.213Z,99769.91
2022-10-19T01:05:21.703Z,99755.06
2022-10-19T01:05:53.944Z,99762.66
2022-10-19T01:06:28.853Z,99766.47
2022-10-19T01:07:04.728Z,99766.75
2022-10-19T01:07:37.290Z,99752.41
2022-10-19T01:08:11.474Z,99759.44
2022-10-19T01:08:46.429Z,99757.81
2022-10-19T01:09:18.597Z,99758.94
2022-10-19T01:09:51.098Z,99761.66
2022-10-19T01:10:34.267Z,99767.88
2022-10-19T01:11:17.277Z,99768.72
2022-10-19T01:11:59.642Z,99763.00
2022-10-19T01:12:51.301Z,99750.09
2022-10-19T01:13:38.374Z,99755.28
2022-10-19T01:14:28.846Z,99768.00
2022-10-19T01:15:11.251Z,99764.19
2022-10-19T01:16:53.767Z,99752.13
2022-10-19T01:17:39.861Z,99742.91
2022-10-19T01:18:19.298Z,99741.81
2022-10-19T01:19:01.095Z,99758.63
2022-10-19T01:20:00.550Z,99756.22
2022-10-19T01:21:07.817Z,99746.28
2022-10-19T01:21:48.347Z,99736.25
2022-10-19T01:22:38.263Z,99740.34
2022-10-19T01:23:30.964Z,99747.94
2022-10-19T01:24:38.453Z,99736.13
2022-10-19T01:25:22.327Z,99741.78
2022-10-19T01:26:04.586Z,99744.72
2022-10-19T01:27:01.963Z,99763.41
2022-10-19T01:27:41.340Z,99753.41
2022-10-19T01:28:28.722Z,99748.53
2022-10-19T01:29:14.329Z,99738.88
2022-10-19T01:30:02.041Z,99741.00
2022-10-19T01:30:48.078Z,99731.28
2022-10-19T01:31:28.033Z,99739.38
2022-10-19T01:32:05.203Z,99742.59
2022-10-19T01:32:56.018Z,99748.00
2022-10-19T01:33:37.663Z,99756.13
2022-10-19T01:34:19.491Z,99737.19
2022-10-19T01:35:00.144Z,99741.53
2022-10-19T01:35:38.409Z,99730.19
2022-10-19T01:36:35.659Z,99733.47
2022-10-19T01:37:17.070Z,99733.19
2022-10-19T01:37:54.060Z,99733.97
2022-10-19T01:38:37.583Z,99738.59
2022-10-19T01:39:13.591Z,99730.25
2022-10-19T01:39:52.701Z,99731.84
2022-10-19T01:40:33.767Z,99737.25
2022-10-19T01:41:15.030Z,99732.44
2022-10-19T01:41:58.288Z,99737.03
2022-10-19T01:42:36.162Z,99746.47
2022-10-19T01:43:14.978Z,99727.03
2022-10-19T01:43:56.822Z,99737.84
2022-10-19T01:44:37.074Z,99744.06
2022-10-19T01:45:17.389Z,99722.72
2022-10-19T01:45:55.363Z,99723.00
2022-10-19T01:46:32.489Z,99732.22
2022-10-19T01:47:11.177Z,99730.63
2022-10-19T01:47:50.510Z,99719.00
2022-10-19T01:48:26.265Z,99725.50
2022-10-19T01:49:06.052Z,99724.41
2022-10-19T01:49:42.395Z,99721.97
2022-10-19T01:50:19.347Z,99731.97
2022-10-19T01:51:00.659Z,99716.56
2022-10-19T01:51:36.280Z,99718.19
2022-10-19T01:52:11.251Z,99728.19
2022-10-19T01:52:46.735Z,99711.97
2022-10-19T01:53:20.670Z,99715.22
2022-10-19T01:53:57.519Z,99720.63
2022-10-19T01:54:37.055Z,99711.16
2022-10-19T01:55:11.937Z,99712.25
2022-10-19T01:55:47.978Z,99710.88
2022-10-19T01:56:26.817Z,99709.28
2022-10-19T01:57:02.048Z,99712.50
2022-10-19T01:57:38.941Z,99709.00
2022-10-19T01:58:19.269Z,99712.50
2022-10-19T01:58:54.252Z,99700.41
2022-10-19T01:59:30.082Z,99703.59
2022-10-19T02:00:07.614Z,99709.00
2022-10-19T02:00:52.827Z,99712.50
2022-10-19T02:01:30.495Z,99711.97
2022-10-19T02:02:05.584Z,99711.16
2022-10-19T02:02:42.822Z,99709.88
2022-10-19T02:03:18.605Z,99708.78
2022-10-19T02:03:52.306Z,99704.16
2022-10-19T02:04:28.657Z,99711.97
2022-10-19T02:05:03.368Z,99706.06
2022-10-19T02:05:37.176Z,99710.34
2022-10-19T02:06:14.490Z,99718.47
2022-10-19T02:06:47.176Z,99704.75
2022-10-19T02:07:22.977Z,99704.47
2022-10-19T02:08:01.563Z,99698.53
2022-10-19T02:08:40.684Z,99717.66
2022-10-19T02:09:18.234Z,99697.22
2022-10-19T02:09:53.264Z,99699.13
2022-10-19T02:10:26.558Z,99701.28
2022-10-19T02:11:00.119Z,99697.00
2022-10-19T02:11:35.971Z,99702.09
2022-10-19T02:12:10.734Z,99702.91
2022-10-19T02:12:44.177Z,99705.91
2022-10-19T02:13:19.958Z,99703.22
2022-10-19T02:13:59.298Z,99700.50
2022-10-19T02:14:37.631Z,99698.38
2022-10-19T02:15:12.194Z,99681.66
2022-10-19T02:15:49.587Z,99692.47
2022-10-19T02:16:30.276Z,99697.34
2022-10-19T02:17:06.290Z,99706.84
2022-10-19T02:17:44.328Z,99699.22
2022-10-19T02:18:23.535Z,99707.66
2022-10-19T02:18:57.824Z,99701.44
2022-10-19T02:19:32.637Z,99686.81
2022-10-19T02:20:06.125Z,99693.03
2022-10-19T02:20:38.212Z,99700.31
2022-10-19T02:21:10.676Z,99706.53
2022-10-19T02:21:45.403Z,99697.63
2022-10-19T02:22:17.494Z,99698.75
2022-10-19T02:22:50.246Z,99694.13
2022-10-19T02:23:28.565Z,99690.63
2022-10-19T02:24:00.730Z,99695.22
2022-10-19T02:24:32.958Z,99690.63
2022-10-19T02:25:09.534Z,99679.81
2022-10-19T02:25:41.678Z,99683.09
2022-10-19T02:26:13.848Z,99680.38
2022-10-19T02:26:49.121Z,99683.09
2022-10-19T02:27:21.829Z,99691.50
2022-10-19T02:27:54.017Z,99695.00
2022-10-19T02:28:29.302Z,99691.19
2022-10-19T02:29:01.762Z,99689.88
2022-10-19T02:29:34.898Z,99699.88
2022-10-19T02:30:11.407Z,99689.88
2022-10-19T02:30:43.636Z,99709.59
2022-10-19T02:31:18.365Z,99705.00
2022-10-19T02:31:53.053Z,99700.41
2022-10-19T02:32:26.390Z,99697.72
2022-10-19T02:32:58.499Z,99704.19
2022-10-19T02:33:33.768Z,99689.88
2022-10-19T02:34:06.442Z,99711.50
2022-10-19T02:34:39.754Z,99725.00
2022-10-19T02:35:17.366Z,99716.09
2022-10-19T02:35:49.907Z,99687.75
2022-10-19T02:36:22.355Z,99692.38
2022-10-19T02:36:57.395Z,99695.56
2022-10-19T02:37:29.815Z,99709.88
2022-10-19T02:38:04.147Z,99710.97
2022-10-19T02:38:39.111Z,99708.78
2022-10-19T02:39:11.380Z,99703.66
2022-10-19T02:39:43.471Z,99698.56
2022-10-19T02:40:18.334Z,99693.16
2022-10-19T02:40:57.708Z,99698.00
2022-10-19T02:41:34.950Z,99696.16
2022-10-19T02:42:14.838Z,99698.91
2022-10-19T02:42:52.771Z,99691.88
2022-10-19T02:43:27.406Z,99693.50
2022-10-19T02:44:07.910Z,99696.47
2022-10-19T02:44:44.550Z,99694.09
2022-10-19T02:45:21.902Z,99697.88
2022-10-19T02:46:03.131Z,99690.84
2022-10-19T02:46:43.630Z,99714.09
2022-10-19T02:47:19.309Z,99707.88
2022-10-19T02:47:57.615Z,99713.84
2022-10-19T02:48:32.400Z,99712.22
2022-10-19T02:49:06.956Z,99716.56
2022-10-19T02:49:42.218Z,99697.34
2022-10-19T02:50:14.599Z,99705.44
2022-10-19T02:50:47.875Z,99701.41
2022-10-19T02:51:36.926Z,99696.84
2022-10-19T02:52:10.807Z,99707.88
2022-10-19T02:52:42.946Z,99713.03
2022-10-19T02:53:18.026Z,99711.97
2022-10-19T02:53:50.123Z,99720.31
2022-10-19T02:54:22.381Z,99709.25
2022-10-19T02:54:57.014Z,99724.06
2022-10-19T02:55:30.206Z,99702.75
2022-10-19T02:56:02.342Z,99716.78
2022-10-19T02:56:38.181Z,99713.03
2022-10-19T02:57:16.586Z,99699.78
2022-10-19T02:57:48.654Z,99706.59
2022-10-19T02:58:23.756Z,99707.09
2022-10-19T02:58:56.186Z,99692.28
2022-10-19T02:59:29.239Z,99700.38
2022-10-19T03:00:04.049Z,99699.56
2022-10-19T03:00:36.389Z,99687.69
2022-10-19T03:01:08.568Z,99696.28
2022-10-19T03:01:43.235Z,99689.00
2022-10-19T03:02:18.746Z,99705.50
2022-10-19T03:02:50.857Z,99701.19
2022-10-19T03:03:22.935Z,99690.66
2022-10-19T03:03:55.087Z,99711.97
2022-10-19T03:04:29.814Z,99698.97
2022-10-19T03:05:02.019Z,99693.09
2022-10-19T03:05:34.118Z,99693.59
2022-10-19T03:06:08.761Z,99687.09
2022-10-19T03:06:40.878Z,99681.19
2022-10-19T03:07:15.983Z,99695.47
2022-10-19T03:07:50.650Z,99681.19
2022-10-19T03:08:22.706Z,99683.38
2022-10-19T03:08:54.793Z,99687.69
2022-10-19T03:09:29.599Z,99679.56
2022-10-19T03:10:01.845Z,99683.38
2022-10-19T03:10:34.099Z,99701.47
2022-10-19T03:11:08.896Z,99692.56
2022-10-19T03:11:40.962Z,99679.06
2022-10-19T03:12:13.689Z,99687.47
2022-10-19T03:12:48.354Z,99669.34
2022-10-19T03:13:20.435Z,99691.75
2022-10-19T03:13:52.659Z,99689.56
2022-10-19T03:14:27.315Z,99679.06
2022-10-19T03:14:59.385Z,99673.66
2022-10-19T03:15:31.529Z,99677.97
2022-10-19T03:16:11.657Z,99675.53
2022-10-19T03:16:46.319Z,99684.44
2022-10-19T03:17:18.566Z,99677.97
2022-10-19T03:17:55.658Z,99675.00
2022-10-19T03:18:27.727Z,99705.78
2022-10-19T03:18:59.795Z,99684.97
2022-10-19T03:19:34.571Z,99698.47
2022-10-19T03:20:07.991Z,99684.16
2022-10-19T03:20:40.082Z,99677.97
2022-10-19T03:21:16.355Z,99677.16
2022-10-19T03:21:48.450Z,99679.06
2022-10-19T03:22:20.545Z,99677.44
2022-10-19T03:23:28.371Z,99673.97
2022-10-19T03:24:01.298Z,99688.22
2022-10-19T03:24:34.128Z,99675.84
2022-10-19T03:25:09.958Z,99689.34
2022-10-19T03:25:42.014Z,99690.72
2022-10-19T03:26:15.880Z,99679.91
2022-10-19T03:26:50.539Z,99676.41
2022-10-19T03:27:22.601Z,99682.91
2022-10-19T03:27:54.663Z,99667.22
2022-10-19T03:28:26.788Z,99666.13
2022-10-19T03:29:01.602Z,99659.13
2022-10-19T03:29:33.718Z,99669.09
2022-10-19T03:30:06.758Z,99665.31
2022-10-19T03:30:41.413Z,99671.53
2022-10-19T03:31:13.551Z,99683.94
2022-10-19T03:31:48.197Z,99665.31
2022-10-19T03:32:22.865Z,99662.91
2022-10-19T03:32:54.955Z,99663.72
2022-10-19T03:33:27.138Z,99663.72
2022-10-19T03:34:02.202Z,99677.22
2022-10-19T03:34:34.299Z,99669.41
2022-10-19T03:35:07.794Z,99675.31
2022-10-19T03:35:42.418Z,99667.50
2022-10-19T03:36:23.970Z,99670.50
2022-10-19T03:36:56.760Z,99670.50
2022-10-19T03:37:28.838Z,99670.19
2022-10-19T03:38:03.534Z,99665.09
2022-10-19T03:38:35.703Z,99662.41
2022-10-19T03:39:10.596Z,99665.09
2022-10-19T03:39:45.313Z,99678.59
2022-10-19T03:40:17.491Z,99674.28
2022-10-19T03:40:49.626Z,99662.41
2022-10-19T03:41:23.129Z,99657.00
2022-10-19T03:41:57.794Z,99668.59
2022-10-19T03:42:29.974Z,99648.91
2022-10-19T03:43:02.038Z,99651.59
2022-10-19T03:43:37.034Z,99646.72
2022-10-19T03:44:10.701Z,99664.28
2022-10-19T03:44:45.402Z,99669.69
2022-10-19T03:45:17.476Z,99659.69
2022-10-19T03:45:49.539Z,99648.91
2022-10-19T03:46:25.073Z,99655.91
2022-10-19T03:46:59.739Z,99648.91
2022-10-19T03:47:32.119Z,99655.91
2022-10-19T03:48:07.616Z,99653.22
2022-10-19T03:48:39.746Z,99646.22
2022-10-19T03:49:12.206Z,99644.09
2022-10-19T03:49:48.479Z,99653.78
2022-10-19T03:50:21.314Z,99651.88
2022-10-19T03:50:59.042Z,99653.50
2022-10-19T03:51:34.517Z,99660.19
2022-10-19T03:52:06.601Z,99660.78
2022-10-19T03:52:38.675Z,99659.69
2022-10-19T03:53:13.318Z,99656.69
2022-10-19T03:53:46.663Z,99654.31
2022-10-19T03:54:19.930Z,99665.09
2022-10-19T03:54:57.077Z,99661.59
2022-10-19T03:55:30.558Z,99658.09
2022-10-19T03:56:04.918Z,99657.59
2022-10-19T03:56:39.586Z,99660.78
2022-10-19T03:57:12.647Z,99664.56
2022-10-19T03:57:44.748Z,99659.47
2022-10-19T03:58:16.841Z,99659.16
2022-10-19T03:58:52.781Z,99654.88
2022-10-19T03:59:24.972Z,99651.38
2022-10-19T03:59:57.135Z,99649.19
2022-10-19T04:00:31.839Z,99650.78
2022-10-19T04:01:08.653Z,99652.69
2022-10-19T04:01:42.819Z,99655.38
2022-10-19T04:02:20.073Z,99660.28
2022-10-19T04:02:52.137Z,99664.06
2022-10-19T04:03:24.250Z,99662.19
2022-10-19T04:04:00.186Z,99659.97
2022-10-19T04:04:32.366Z,99661.38
2022-10-19T04:05:05.397Z,99655.44
2022-10-19T04:05:40.064Z,99650.03
2022-10-19T04:06:18.216Z,99657.88
2022-10-19T04:06:54.006Z,99659.75
2022-10-19T04:07:28.716Z,99671.63
2022-10-19T04:08:00.848Z,99654.94
2022-10-19T04:08:32.981Z,99657.63
2022-10-19T04:09:08.889Z,99659.81
2022-10-19T04:09:41.084Z,99666.28
2022-10-19T04:10:13.206Z,99669.00
2022-10-19T04:10:47.939Z,99664.41
2022-10-19T04:11:22.592Z,99670.59
2022-10-19T04:11:57.328Z,99661.44
2022-10-19T04:12:29.460Z,99671.41
2022-10-19T04:13:01.546Z,99673.03
2022-10-19T04:13:37.895Z,99669.53
2022-10-19T04:14:15.962Z,99669.53
2022-10-19T04:14:58.011Z,99670.88
2022-10-19T04:15:30.268Z,99679.28
2022-10-19T04:16:02.344Z,99677.66
2022-10-19T04:16:37.543Z,99690.88
2022-10-19T04:17:10.738Z,99678.19
2022-10-19T04:17:48.520Z,99670.88
2022-10-19T04:18:23.358Z,99682.25
2022-10-19T04:18:55.929Z,99675.25
2022-10-19T04:19:28.053Z,99671.47
2022-10-19T04:20:02.752Z,99666.88
2022-10-19T04:20:34.966Z,99666.88
2022-10-19T04:21:07.450Z,99665.84
2022-10-19T04:21:43.867Z,99677.13
2022-10-19T04:22:16.133Z,99666.34
2022-10-19T04:22:48.185Z,99654.19
2022-10-19T04:23:22.831Z,99655.28
2022-10-19T04:23:59.987Z,99666.06
2022-10-19T04:24:34.641Z,99686.56
2022-10-19T04:25:09.700Z,99677.41
2022-10-19T04:25:41.916Z,99670.38
2022-10-19T04:26:14.010Z,99669.28
2022-10-19T04:26:51.049Z,99685.19
2022-10-19T04:27:23.158Z,99669.56
2022-10-19T04:27:55.252Z,99679.78
2022-10-19T04:28:30.286Z,99683.81
2022-10-19T04:29:02.513Z,99673.84
2022-10-19T04:29:37.425Z,99671.41
2022-10-19T04:30:10.644Z,99674.38
2022-10-19T04:30:42.756Z,99664.41
2022-10-19T04:31:17.620Z,99672.22
2022-10-19T04:31:50.787Z,99675.41
2022-10-19T04:32:22.883Z,99676.81
2022-10-19T04:33:00.217Z,99681.41
2022-10-19T04:33:32.697Z,99676.81
2022-10-19T04:34:05.346Z,99668.19
2022-10-19T04:34:40.238Z,99667.91
2022-10-19T04:35:12.464Z,99655.81
2022-10-19T04:35:44.572Z,99661.19
2022-10-19T04:36:19.271Z,99656.31
2022-10-19T04:36:51.353Z,99667.63
2022-10-19T04:37:23.462Z,99660.34
2022-10-19T04:37:58.097Z,99655.44
2022-10-19T04:38:30.945Z,99681.94
2022-10-19T04:39:03.343Z,99664.94
2022-10-19T04:39:40.850Z,99677.34
2022-10-19T04:40:15.046Z,99678.13
2022-10-19T04:40:47.397Z,99680.59
2022-10-19T04:41:23.935Z,99681.69
2022-10-19T04:41:56.007Z,99668.75
2022-10-19T04:42:28.113Z,99669.00
2022-10-19T04:43:02.739Z,99654.47
2022-10-19T04:43:35.608Z,99668.75
2022-10-19T04:44:07.889Z,99664.97
2022-10-19T04:44:42.557Z,99662.78
2022-10-19T04:45:14.877Z,99674.13
2022-10-19T04:45:46.944Z,99674.66
2022-10-19T04:46:22.763Z,99660.84
2022-10-19T04:46:54.830Z,99670.84
2022-10-19T04:47:26.922Z,99665.44
2022-10-19T04:48:04.410Z,99660.84
2022-10-19T04:48:38.129Z,99656.84
2022-10-19T04:49:10.452Z,99660.63
2022-10-19T04:49:45.328Z,99659.00
2022-10-19T04:50:17.630Z,99640.63
2022-10-19T04:50:49.909Z,99640.91
2022-10-19T04:51:29.942Z,99642.00
2022-10-19T04:52:02.107Z,99657.38
2022-10-19T04:52:35.347Z,99656.31
2022-10-19T04:53:10.072Z,99657.69
2022-10-19T04:53:43.266Z,99660.41
2022-10-19T04:54:15.436Z,99647.97
2022-10-19T04:54:50.194Z,99657.16
2022-10-19T04:55:22.274Z,99660.66
2022-10-19T04:55:54.467Z,99659.59
2022-10-19T04:56:31.039Z,99661.19
2022-10-19T04:57:03.999Z,99665.25
2022-10-19T04:57:36.506Z,99663.38
2022-10-19T04:58:11.644Z,99660.16
2022-10-19T04:58:44.385Z,99670.44
2022-10-19T04:59:16.449Z,99671.25
2022-10-19T04:59:51.095Z,99663.63
2022-10-19T05:00:23.170Z,99672.03
2022-10-19T05:00:55.473Z,99669.63
2022-10-19T05:01:32.482Z,99661.53
2022-10-19T05:02:04.631Z,99663.19
2022-10-19T05:02:39.307Z,99665.31
2022-10-19T05:03:14.626Z,99682.31
2022-10-19T05:03:47.345Z,99678.25
2022-10-19T05:04:22.007Z,99690.13
2022-10-19T05:04:54.077Z,99683.94
2022-10-19T05:05:26.910Z,99685.53
2022-10-19T05:05:59.383Z,99684.16
2022-10-19T05:06:34.851Z,99676.88
2022-10-19T05:07:06.925Z,99679.56
2022-10-19T05:07:39.102Z,99677.41
2022-10-19T05:08:14.286Z,99677.09
2022-10-19T05:08:48.431Z,99685.19
2022-10-19T05:09:20.557Z,99687.06
2022-10-19T05:09:55.297Z,99685.50
2022-10-19T05:10:27.467Z,99684.38
2022-10-19T05:11:03.177Z,99689.78
2022-10-19T05:11:37.870Z,99687.88
2022-10-19T05:12:10.000Z,99690.59
2022-10-19T05:12:42.090Z,99699.22
2022-10-19T05:13:16.721Z,99701.63
2022-10-19T05:13:49.116Z,99697.00
2022-10-19T05:14:24.070Z,99697.53
2022-10-19T05:14:56.182Z,99707.25
2022-10-19T05:15:28.445Z,99719.69
2022-10-19T05:16:05.015Z,99709.66
2022-10-19T05:16:37.159Z,99703.19
2022-10-19T05:17:12.846Z,99711.59
2022-10-19T05:17:44.922Z,99726.97
2022-10-19T05:18:19.586Z,99723.47
2022-10-19T05:18:56.820Z,99708.94
2022-10-19T05:19:28.951Z,99713.78
2022-10-19T05:20:03.630Z,99726.47
2022-10-19T05:20:35.727Z,99728.38
2022-10-19T05:21:09.530Z,99727.28
2022-10-19T05:21:44.205Z,99718.16
2022-10-19T05:22:16.359Z,99721.94
2022-10-19T05:22:48.551Z,99731.69
2022-10-19T05:23:23.276Z,99724.69
2022-10-19T05:23:56.660Z,99729.34
2022-10-19T05:24:28.741Z,99717.22
2022-10-19T05:25:03.407Z,99722.09
2022-10-19T05:25:35.532Z,99709.41
2022-10-19T05:26:09.968Z,99708.03
2022-10-19T05:26:44.626Z,99704.53
2022-10-19T05:27:16.782Z,99703.66
2022-10-19T05:27:51.565Z,99703.66
2022-10-19T05:28:26.298Z,99695.28
2022-10-19T05:29:01.952Z,99695.28
2022-10-19T05:29:36.793Z,99701.50
2022-10-19T05:30:10.021Z,99711.19
2022-10-19T05:30:46.638Z,99709.28
2022-10-19T05:31:23.675Z,99709.03
2022-10-19T05:31:55.765Z,99714.66
2022-10-19T05:32:28.219Z,99714.38
2022-10-19T05:33:02.882Z,99714.59
2022-10-19T05:33:38.642Z,99712.72
2022-10-19T05:34:13.373Z,99720.53
2022-10-19T05:34:45.474Z,99716.72
2022-10-19T05:35:20.088Z,99715.63
2022-10-19T05:35:57.112Z,99724.28
2022-10-19T05:36:34.506Z,99718.56
2022-10-19T05:37:06.653Z,99716.66
2022-10-19T05:37:41.363Z,99719.09
2022-10-19T05:38:13.485Z,99719.91
2022-10-19T05:38:47.171Z,99713.13
2022-10-19T05:39:21.915Z,99714.72
2022-10-19T05:39:54.687Z,99717.94
2022-10-19T05:40:26.778Z,99707.94
2022-10-19T05:41:01.450Z,99710.38
2022-10-19T05:41:33.757Z,99708.97
2022-10-19T05:42:08.417Z,99706.81
2022-10-19T05:42:40.553Z,99709.25
2022-10-19T05:43:12.676Z,99721.38
2022-10-19T05:43:47.799Z,99717.88
2022-10-19T05:44:21.739Z,99707.88
2022-10-19T05:44:53.807Z,99717.06
2022-10-19T05:45:28.490Z,99721.09
2022-10-19T05:46:03.957Z,99725.69
2022-10-19T05:46:39.450Z,99725.41
2022-10-19T05:47:11.515Z,99723.50
2022-10-19T05:47:43.580Z,99728.59
2022-10-19T05:48:18.392Z,99731.03
2022-10-19T05:48:54.768Z,99738.03
2022-10-19T05:49:29.614Z,99725.09
2022-10-19T05:50:01.741Z,99734.53
2022-10-19T05:50:33.859Z,99730.22
2022-10-19T05:51:10.943Z,99729.41
2022-10-19T05:51:43.514Z,99727.00
2022-10-19T05:52:17.800Z,99737.53
2022-10-19T05:52:52.443Z,99731.03
2022-10-19T05:53:24.650Z,99726.44
2022-10-19T05:53:57.516Z,99730.97
2022-10-19T05:54:32.369Z,99736.66
2022-10-19T05:55:05.348Z,99731.75
2022-10-19T05:55:37.527Z,99729.88
2022-10-19T05:56:16.666Z,99736.59
2022-10-19T05:56:49.029Z,99719.59
2022-10-19T05:57:23.733Z,99729.00
2022-10-19T05:57:55.814Z,99720.09
2022-10-19T05:58:27.963Z,99720.91
2022-10-19T05:59:05.578Z,99730.63
2022-10-19T05:59:37.725Z,99736.03
2022-10-19T06:00:11.854Z,99734.94
2022-10-19T06:00:46.874Z,99735.44
2022-10-19T06:01:20.186Z,99730.03
2022-10-19T06:01:54.955Z,99734.34
2022-10-19T06:02:27.127Z,99738.94
2022-10-19T06:02:59.354Z,99738.94
2022-10-19T06:03:34.206Z,99728.16
2022-10-19T06:04:10.941Z,99737.06
2022-10-19T06:04:45.714Z,99737.06
2022-10-19T06:05:17.827Z,99731.66
2022-10-19T06:05:50.388Z,99724.63
2022-10-19T06:06:26.149Z,99731.38
2022-10-19T06:06:58.205Z,99730.28
2022-10-19T06:07:30.425Z,99731.88
2022-10-19T06:08:02.502Z,99731.59
2022-10-19T06:08:38.258Z,99734.81
2022-10-19T06:09:10.767Z,99731.31
2022-10-19T06:09:43.002Z,99732.13
2022-10-19T06:10:17.830Z,99740.22
2022-10-19T06:10:50.527Z,99735.63
2022-10-19T06:11:27.675Z,99745.31
2022-10-19T06:11:59.814Z,99749.16
2022-10-19T06:12:34.544Z,99749.91
2022-10-19T06:13:06.684Z,99744.81
2022-10-19T06:13:39.595Z,99756.44
2022-10-19T06:14:17.148Z,99758.59
2022-10-19T06:14:51.354Z,99770.81
2022-10-19T06:15:23.433Z,99762.44
2022-10-19T06:15:58.135Z,99757.06
2022-10-19T06:16:31.487Z,99757.06
2022-10-19T06:17:06.800Z,99761.69
2022-10-19T06:17:38.875Z,99758.44
2022-10-19T06:18:13.223Z,99772.22
2022-10-19T06:18:48.782Z,99758.72
2022-10-19T06:19:23.525Z,99763.03
2022-10-19T06:19:58.213Z,99753.03
2022-10-19T06:20:30.326Z,99760.06
2022-10-19T06:21:04.073Z,99763.03
2022-10-19T06:21:41.824Z,99757.63
2022-10-19T06:22:17.047Z,99752.50
2022-10-19T06:22:51.708Z,99754.13
2022-10-19T06:23:23.782Z,99757.63
2022-10-19T06:23:57.944Z,99754.66
2022-10-19T06:24:32.859Z,99750.06
2022-10-19T06:25:05.754Z,99755.16
2022-10-19T06:25:37.911Z,99763.78
2022-10-19T06:26:15.333Z,99751.59
2022-10-19T06:26:47.412Z,99746.19
2022-10-19T06:27:22.120Z,99763.75
2022-10-19T06:27:54.253Z,99752.63
2022-10-19T06:28:26.420Z,99756.94
2022-10-19T06:29:03.903Z,99759.38
2022-10-19T06:29:36.528Z,99746.94
2022-10-19T06:30:09.938Z,99756.34
2022-10-19T06:30:44.695Z,99765.25
2022-10-19T06:31:17.394Z,99754.19
2022-10-19T06:31:49.493Z,99755.00
2022-10-19T06:32:24.141Z,99756.59
2022-10-19T06:32:56.318Z,99757.41
2022-10-19T06:33:30.135Z,99757.91
2022-10-19T06:34:05.317Z,99766.81
2022-10-19T06:34:40.205Z,99768.22
2022-10-19T06:35:12.318Z,99781.78
2022-10-19T06:35:46.959Z,99769.13
2022-10-19T06:36:21.191Z,99760.50
2022-10-19T06:36:53.253Z,99769.69
2022-10-19T06:37:27.925Z,99768.59
2022-10-19T06:38:00.218Z,99775.91
2022-10-19T06:38:32.451Z,99772.13
2022-10-19T06:39:07.485Z,99775.34
2022-10-19T06:39:39.745Z,99774.81
2022-10-19T06:40:12.571Z,99777.53
2022-10-19T06:40:49.129Z,99780.22
2022-10-19T06:41:21.293Z,99770.50
2022-10-19T06:41:56.010Z,99779.94
2022-10-19T06:42:30.382Z,99785.34
2022-10-19T06:43:02.727Z,99777.25
2022-10-19T06:43:37.991Z,99778.06
2022-10-19T06:44:10.122Z,99776.94
2022-10-19T06:44:44.835Z,99781.25
2022-10-19T06:45:17.037Z,99782.88
2022-10-19T06:45:49.114Z,99773.69
2022-10-19T06:46:26.148Z,99783.38
2022-10-19T06:46:58.235Z,99788.50
2022-10-19T06:47:33.380Z,99780.41
2022-10-19T06:48:09.571Z,99790.94
2022-10-19T06:48:41.715Z,99788.22
2022-10-19T06:49:17.644Z,99793.31
2022-10-19T06:49:52.282Z,99789.53
2022-10-19T06:50:24.378Z,99786.03
2022-10-19T06:50:59.795Z,99781.44
2022-10-19T06:51:32.421Z,99793.03
2022-10-19T06:52:07.811Z,99791.97